Hauptseite
METAR-TAF:

METAR-TAF

Flughäfen :

Flughafen Almería

Almería, Spanien

Breite: 36-51N, Länge: 002-23W, Höhe: 15 m

Beobachtung

Neuester Wetterbericht von vor 23 Minuten, um 20:30 UTC
Wind 4 kt aus Nord/Nordwest
Temperatur 12°C
Luftfeuchtigkeit 94%
Luftdruck 1024 hPa
Sichtweite 10 km oder mehr
Aufgelockert bewölkt in der Höhe von 6000 ft

METAR: LEAM 082030Z 33004KT 9999 SCT060 12/11 Q1024

Zeit: 21:53 (20:53 UTC)

Prognose

Neuester Wetterbericht von vor 53 Minuten, um 20:00 UTC
Gültige Prognose vom 08 um 21 UTC bis 09 um 21 UTC
Wind 6 kt aus Nord/Nordwest
Sichtweite 10 km oder mehr
keine Wolken unter 1500 m und keine Kumulonimbus oder Gewitterwolken

TAF: LEAM 082000Z 0821/0921 34006KT CAVOK TX21/0912Z TN11/0906Z

Wetterbeobachtungen und Prognosen von mehr als 4000 Flughäfen (METAR und TAF Bericht).

Die verfügbaren Stationen werden durch gelbe und rote Markierungen auf der Karte dargestellt.

Führen Sie die Maus auf sie, um den Namen der Station zu sehen.

Darauf klicken, um die Beobachtung von Wetterbeobachtungen und Prognosen zu sehen.

Um die Karte zu ändern : klicken Sie auf den grünen Tasten mit einem schwarzen Kreuz Zum Vergrößern, auf den grünen Button mit einem Gedankenstrich zu verkleinern, oder auf die grünen Pfeile für benachbarte Karten.


METAR-TAF: